CZ-0134 weather

Public forecast

Using degrees Celsius for public forecast. Weather courtesy of forecast.io.

Closest aviation weather report (METAR) to Nová Včelnice Airstrip

Closest report is Náměšť Air Base, 41.5 nm (76.9 km) E. Retrieved 2020/08/14 15:30 UTC (1 hour ago):

LKNA 141530Z 05010KT 020V100 9999 -TSRA BKN032CB 19/16 Q1014 NOSIG

Closest aviation forecast (TAF) to Nová Včelnice Airstrip

Closest forecast is Náměšť Air Base, 41.5 nm (76.9 km) E. Retrieved 2020/08/14 12:00 UTC (5 hours ago):

TAF LKNA 141100Z 1412/1512 VRB02KT 9999 SCT040 TEMPO 1412/1500 24015KT 4000 TSRA SCT025CB BKN035 PROB30 TEMPO 1412/1422 2000 TSGR BKN020CB BECMG 1500/1502 33006KT PROB30 TEMPO 1502/1506 2000 MIFG BR SCT004